sensor_id;sensor_type;location;lat;lon;timestamp;pressure;altitude;pressure_sealevel;temperature;humidity
77027;BME280;65956;52.986;17.490;2022-12-29T00:00:05;99714.41;;;5.40;87.35
77027;BME280;65956;52.986;17.490;2022-12-29T00:02:59;99712.83;;;5.39;87.52
77027;BME280;65956;52.986;17.490;2022-12-29T00:05:26;99706.64;;;5.41;87.54
77027;BME280;65956;52.986;17.490;2022-12-29T00:07:54;99707.91;;;5.41;87.58
77027;BME280;65956;52.986;17.490;2022-12-29T00:10:21;99700.45;;;5.40;87.61
77027;BME280;65956;52.986;17.490;2022-12-29T00:12:48;99701.10;;;5.40;87.33
77027;BME280;65956;52.986;17.490;2022-12-29T00:15:35;99697.31;;;5.38;87.54
77027;BME280;65956;52.986;17.490;2022-12-29T00:18:07;99702.84;;;5.35;87.47
77027;BME280;65956;52.986;17.490;2022-12-29T00:20:36;99692.80;;;5.35;87.44
77027;BME280;65956;52.986;17.490;2022-12-29T00:23:23;99696.41;;;5.37;87.38
77027;BME280;65956;52.986;17.490;2022-12-29T00:26:13;99693.42;;;5.34;87.38
77027;BME280;65956;52.986;17.490;2022-12-29T00:29:00;99685.10;;;5.33;87.33
77027;BME280;65956;52.986;17.490;2022-12-29T00:31:45;99689.53;;;5.33;87.26
77027;BME280;65956;52.986;17.490;2022-12-29T00:34:32;99693.35;;;5.34;87.16
77027;BME280;65956;52.986;17.490;2022-12-29T00:37:18;99695.05;;;5.33;87.11
77027;BME280;65956;52.986;17.490;2022-12-29T00:40:06;99699.75;;;5.34;87.18
77027;BME280;65956;52.986;17.490;2022-12-29T00:42:53;99701.15;;;5.37;87.12
77027;BME280;65956;52.986;17.490;2022-12-29T00:45:41;99697.88;;;5.36;86.93
77027;BME280;65956;52.986;17.490;2022-12-29T00:48:08;99700.73;;;5.33;86.77
77027;BME280;65956;52.986;17.490;2022-12-29T00:50:36;99706.48;;;5.35;86.54
77027;BME280;65956;52.986;17.490;2022-12-29T00:53:03;99708.70;;;5.36;86.79
77027;BME280;65956;52.986;17.490;2022-12-29T00:55:30;99696.23;;;5.36;86.71
77027;BME280;65956;52.986;17.490;2022-12-29T00:57:58;99686.02;;;5.35;86.44
77027;BME280;65956;52.986;17.490;2022-12-29T01:00:25;99689.04;;;5.36;86.51
77027;BME280;65956;52.986;17.490;2022-12-29T01:02:52;99679.29;;;5.37;86.23
77027;BME280;65956;52.986;17.490;2022-12-29T01:05:20;99668.73;;;5.35;86.17
77027;BME280;65956;52.986;17.490;2022-12-29T01:07:47;99671.48;;;5.34;86.09
77027;BME280;65956;52.986;17.490;2022-12-29T01:10:14;99674.27;;;5.35;86.14
77027;BME280;65956;52.986;17.490;2022-12-29T01:12:42;99670.98;;;5.36;85.98
77027;BME280;65956;52.986;17.490;2022-12-29T01:15:13;99665.29;;;5.36;85.99
77027;BME280;65956;52.986;17.490;2022-12-29T01:17:42;99664.20;;;5.37;85.92
77027;BME280;65956;52.986;17.490;2022-12-29T01:20:10;99666.33;;;5.36;85.89
77027;BME280;65956;52.986;17.490;2022-12-29T01:22:40;99670.66;;;5.39;85.84
77027;BME280;65956;52.986;17.490;2022-12-29T01:25:09;99664.12;;;5.39;85.57
77027;BME280;65956;52.986;17.490;2022-12-29T01:27:38;99668.59;;;5.35;85.67
77027;BME280;65956;52.986;17.490;2022-12-29T01:30:06;99668.77;;;5.30;85.72
77027;BME280;65956;52.986;17.490;2022-12-29T01:32:34;99661.75;;;5.30;85.69
77027;BME280;65956;52.986;17.490;2022-12-29T01:35:01;99666.64;;;5.30;85.67
77027;BME280;65956;52.986;17.490;2022-12-29T01:37:28;99653.52;;;5.30;85.84
77027;BME280;65956;52.986;17.490;2022-12-29T01:39:55;99643.12;;;5.28;85.66
77027;BME280;65956;52.986;17.490;2022-12-29T01:42:24;99638.35;;;5.26;85.65
77027;BME280;65956;52.986;17.490;2022-12-29T01:44:54;99631.17;;;5.27;85.75
77027;BME280;65956;52.986;17.490;2022-12-29T01:50:03;99618.48;;;5.27;85.65
77027;BME280;65956;52.986;17.490;2022-12-29T01:52:34;99620.17;;;5.25;85.42
77027;BME280;65956;52.986;17.490;2022-12-29T01:55:03;99622.48;;;5.25;85.63
77027;BME280;65956;52.986;17.490;2022-12-29T01:57:34;99612.91;;;5.25;85.40
77027;BME280;65956;52.986;17.490;2022-12-29T02:00:08;99606.25;;;5.24;85.40
77027;BME280;65956;52.986;17.490;2022-12-29T02:02:44;99603.63;;;5.23;85.23
77027;BME280;65956;52.986;17.490;2022-12-29T02:08:20;99587.15;;;5.21;85.27
77027;BME280;65956;52.986;17.490;2022-12-29T02:10:49;99586.93;;;5.25;85.10
77027;BME280;65956;52.986;17.490;2022-12-29T02:13:17;99584.69;;;5.26;84.87
77027;BME280;65956;52.986;17.490;2022-12-29T02:18:47;99589.38;;;5.31;84.26
77027;BME280;65956;52.986;17.490;2022-12-29T02:32:59;99568.96;;;5.57;82.31
77027;BME280;65956;52.986;17.490;2022-12-29T02:35:47;99574.02;;;5.63;81.95
77027;BME280;65956;52.986;17.490;2022-12-29T02:46:37;99565.27;;;5.71;81.91
77027;BME280;65956;52.986;17.490;2022-12-29T02:49:33;99566.27;;;5.69;81.96
77027;BME280;65956;52.986;17.490;2022-12-29T02:52:14;99566.95;;;5.68;82.15
77027;BME280;65956;52.986;17.490;2022-12-29T02:54:43;99559.81;;;5.64;82.38
77027;BME280;65956;52.986;17.490;2022-12-29T02:57:14;99559.67;;;5.61;82.87
77027;BME280;65956;52.986;17.490;2022-12-29T02:59:43;99551.52;;;5.57;83.07
77027;BME280;65956;52.986;17.490;2022-12-29T03:07:47;99548.75;;;5.54;83.68
77027;BME280;65956;52.986;17.490;2022-12-29T03:10:45;99551.34;;;5.53;83.93
77027;BME280;65956;52.986;17.490;2022-12-29T03:16:42;99538.61;;;5.49;84.56
77027;BME280;65956;52.986;17.490;2022-12-29T03:19:46;99541.34;;;5.47;84.74
77027;BME280;65956;52.986;17.490;2022-12-29T03:22:07;99534.70;;;5.46;84.88
77027;BME280;65956;52.986;17.490;2022-12-29T03:27:39;99535.04;;;5.45;85.00
77027;BME280;65956;52.986;17.490;2022-12-29T03:30:08;99528.24;;;5.48;85.11
77027;BME280;65956;52.986;17.490;2022-12-29T03:32:59;99528.13;;;5.49;85.19
77027;BME280;65956;52.986;17.490;2022-12-29T03:35:33;99526.25;;;5.50;85.29
77027;BME280;65956;52.986;17.490;2022-12-29T03:38:39;99523.86;;;5.50;85.33
77027;BME280;65956;52.986;17.490;2022-12-29T03:41:08;99520.90;;;5.51;85.33
77027;BME280;65956;52.986;17.490;2022-12-29T03:43:37;99516.45;;;5.54;85.42
77027;BME280;65956;52.986;17.490;2022-12-29T03:46:04;99517.55;;;5.53;85.34
77027;BME280;65956;52.986;17.490;2022-12-29T03:48:32;99520.73;;;5.51;85.51
77027;BME280;65956;52.986;17.490;2022-12-29T03:51:00;99512.73;;;5.50;85.62
77027;BME280;65956;52.986;17.490;2022-12-29T03:53:27;99513.39;;;5.54;85.69
77027;BME280;65956;52.986;17.490;2022-12-29T03:55:55;99511.64;;;5.54;85.64
77027;BME280;65956;52.986;17.490;2022-12-29T03:58:22;99513.33;;;5.51;85.74
77027;BME280;65956;52.986;17.490;2022-12-29T04:00:56;99519.59;;;5.52;85.72
77027;BME280;65956;52.986;17.490;2022-12-29T04:03:24;99510.68;;;5.53;85.78
77027;BME280;65956;52.986;17.490;2022-12-29T04:05:52;99510.29;;;5.53;85.66
77027;BME280;65956;52.986;17.490;2022-12-29T04:08:19;99507.89;;;5.55;85.45
77027;BME280;65956;52.986;17.490;2022-12-29T04:10:49;99508.02;;;5.57;85.50
77027;BME280;65956;52.986;17.490;2022-12-29T04:13:19;99501.33;;;5.58;85.36
77027;BME280;65956;52.986;17.490;2022-12-29T04:15:46;99502.98;;;5.60;85.54
77027;BME280;65956;52.986;17.490;2022-12-29T04:18:13;99498.52;;;5.59;85.28
77027;BME280;65956;52.986;17.490;2022-12-29T04:20:41;99500.56;;;5.59;85.57
77027;BME280;65956;52.986;17.490;2022-12-29T04:23:27;99497.30;;;5.61;85.27
77027;BME280;65956;52.986;17.490;2022-12-29T04:25:55;99498.26;;;5.62;85.41
77027;BME280;65956;52.986;17.490;2022-12-29T04:28:22;99497.78;;;5.61;85.34
77027;BME280;65956;52.986;17.490;2022-12-29T04:30:59;99490.44;;;5.61;85.42
77027;BME280;65956;52.986;17.490;2022-12-29T04:33:33;99490.98;;;5.65;85.39
77027;BME280;65956;52.986;17.490;2022-12-29T04:36:01;99489.80;;;5.68;85.48
77027;BME280;65956;52.986;17.490;2022-12-29T04:38:29;99486.83;;;5.69;85.37
77027;BME280;65956;52.986;17.490;2022-12-29T04:40:59;99483.36;;;5.69;85.44
77027;BME280;65956;52.986;17.490;2022-12-29T04:43:28;99477.13;;;5.70;85.36
77027;BME280;65956;52.986;17.490;2022-12-29T04:46:04;99479.99;;;5.74;85.30
77027;BME280;65956;52.986;17.490;2022-12-29T04:48:42;99480.83;;;5.76;85.29
77027;BME280;65956;52.986;17.490;2022-12-29T04:51:46;99479.31;;;5.80;85.10
77027;BME280;65956;52.986;17.490;2022-12-29T04:54:15;99487.08;;;5.83;85.26
77027;BME280;65956;52.986;17.490;2022-12-29T04:56:44;99490.98;;;5.87;85.18
77027;BME280;65956;52.986;17.490;2022-12-29T04:59:14;99488.02;;;5.89;85.22
77027;BME280;65956;52.986;17.490;2022-12-29T05:01:42;99493.52;;;5.91;85.00
77027;BME280;65956;52.986;17.490;2022-12-29T05:04:10;99487.80;;;5.94;85.15
77027;BME280;65956;52.986;17.490;2022-12-29T05:06:38;99484.09;;;5.98;84.93
77027;BME280;65956;52.986;17.490;2022-12-29T05:09:06;99476.91;;;5.98;84.88
77027;BME280;65956;52.986;17.490;2022-12-29T05:11:34;99471.05;;;5.98;84.96
77027;BME280;65956;52.986;17.490;2022-12-29T05:14:02;99461.02;;;5.97;84.84
77027;BME280;65956;52.986;17.490;2022-12-29T05:16:30;99466.49;;;5.98;84.72
77027;BME280;65956;52.986;17.490;2022-12-29T05:18:58;99461.67;;;5.98;84.75
77027;BME280;65956;52.986;17.490;2022-12-29T05:21:25;99455.31;;;5.97;84.63
77027;BME280;65956;52.986;17.490;2022-12-29T05:23:53;99456.05;;;5.98;84.94
77027;BME280;65956;52.986;17.490;2022-12-29T05:26:21;99446.69;;;5.99;84.50
77027;BME280;65956;52.986;17.490;2022-12-29T05:29:05;99441.55;;;5.99;84.73
77027;BME280;65956;52.986;17.490;2022-12-29T05:31:33;99435.11;;;6.01;84.34
77027;BME280;65956;52.986;17.490;2022-12-29T05:34:03;99429.22;;;6.03;84.14
77027;BME280;65956;52.986;17.490;2022-12-29T05:36:31;99422.86;;;6.04;84.13
77027;BME280;65956;52.986;17.490;2022-12-29T05:39:00;99422.30;;;6.04;84.00
77027;BME280;65956;52.986;17.490;2022-12-29T05:41:28;99423.13;;;6.02;83.82
77027;BME280;65956;52.986;17.490;2022-12-29T05:44:13;99419.36;;;5.99;83.47
77027;BME280;65956;52.986;17.490;2022-12-29T05:47:01;99420.77;;;5.99;83.29
77027;BME280;65956;52.986;17.490;2022-12-29T05:50:04;99417.27;;;5.94;83.11
77027;BME280;65956;52.986;17.490;2022-12-29T05:52:50;99419.83;;;5.91;82.98
77027;BME280;65956;52.986;17.490;2022-12-29T05:55:18;99425.89;;;5.90;83.13
77027;BME280;65956;52.986;17.490;2022-12-29T05:57:46;99434.52;;;5.92;83.17
77027;BME280;65956;52.986;17.490;2022-12-29T06:00:15;99437.36;;;5.91;83.15
77027;BME280;65956;52.986;17.490;2022-12-29T06:02:43;99440.82;;;5.90;83.18
77027;BME280;65956;52.986;17.490;2022-12-29T06:05:10;99444.52;;;5.94;83.27
77027;BME280;65956;52.986;17.490;2022-12-29T06:07:39;99437.13;;;5.99;83.28
77027;BME280;65956;52.986;17.490;2022-12-29T06:10:07;99434.61;;;6.00;83.07
77027;BME280;65956;52.986;17.490;2022-12-29T06:12:43;99430.90;;;6.00;83.09
77027;BME280;65956;52.986;17.490;2022-12-29T06:15:10;99415.21;;;6.02;82.77
77027;BME280;65956;52.986;17.490;2022-12-29T06:17:40;99416.69;;;6.03;82.84
77027;BME280;65956;52.986;17.490;2022-12-29T06:20:09;99414.38;;;6.03;82.50
77027;BME280;65956;52.986;17.490;2022-12-29T06:22:38;99415.19;;;6.04;82.48
77027;BME280;65956;52.986;17.490;2022-12-29T06:25:06;99416.17;;;6.06;82.33
77027;BME280;65956;52.986;17.490;2022-12-29T06:27:34;99420.50;;;6.09;82.23
77027;BME280;65956;52.986;17.490;2022-12-29T06:30:02;99421.27;;;6.08;82.29
77027;BME280;65956;52.986;17.490;2022-12-29T06:32:29;99430.45;;;6.08;82.13
77027;BME280;65956;52.986;17.490;2022-12-29T06:35:03;99431.18;;;6.10;82.31
77027;BME280;65956;52.986;17.490;2022-12-29T06:37:31;99430.77;;;6.12;82.13
77027;BME280;65956;52.986;17.490;2022-12-29T06:39:59;99431.73;;;6.14;81.78
77027;BME280;65956;52.986;17.490;2022-12-29T06:42:33;99429.11;;;6.16;81.75
77027;BME280;65956;52.986;17.490;2022-12-29T06:45:22;99426.94;;;6.23;81.35
77027;BME280;65956;52.986;17.490;2022-12-29T06:47:49;99423.46;;;6.26;81.15
77027;BME280;65956;52.986;17.490;2022-12-29T06:50:16;99421.48;;;6.29;80.88
77027;BME280;65956;52.986;17.490;2022-12-29T06:52:44;99429.23;;;6.30;80.81
77027;BME280;65956;52.986;17.490;2022-12-29T06:55:11;99429.49;;;6.32;80.87
77027;BME280;65956;52.986;17.490;2022-12-29T06:57:38;99433.34;;;6.34;80.67
77027;BME280;65956;52.986;17.490;2022-12-29T07:00:06;99437.16;;;6.35;80.53
77027;BME280;65956;52.986;17.490;2022-12-29T07:02:33;99441.48;;;6.38;80.39
77027;BME280;65956;52.986;17.490;2022-12-29T07:05:01;99432.19;;;6.41;80.33
77027;BME280;65956;52.986;17.490;2022-12-29T07:07:28;99425.73;;;6.42;80.24
77027;BME280;65956;52.986;17.490;2022-12-29T07:09:56;99425.30;;;6.41;80.16
77027;BME280;65956;52.986;17.490;2022-12-29T07:12:25;99432.23;;;6.40;80.22
77027;BME280;65956;52.986;17.490;2022-12-29T07:14:53;99436.36;;;6.44;80.09
77027;BME280;65956;52.986;17.490;2022-12-29T07:17:20;99436.16;;;6.46;79.96
77027;BME280;65956;52.986;17.490;2022-12-29T07:19:47;99438.60;;;6.49;79.91
77027;BME280;65956;52.986;17.490;2022-12-29T07:22:15;99430.97;;;6.52;79.58
77027;BME280;65956;52.986;17.490;2022-12-29T07:24:43;99433.33;;;6.58;79.39
77027;BME280;65956;52.986;17.490;2022-12-29T07:27:10;99432.55;;;6.60;79.16
77027;BME280;65956;52.986;17.490;2022-12-29T07:29:37;99425.77;;;6.60;79.08
77027;BME280;65956;52.986;17.490;2022-12-29T07:32:05;99424.88;;;6.64;78.99
77027;BME280;65956;52.986;17.490;2022-12-29T07:34:32;99421.47;;;6.68;78.70
77027;BME280;65956;52.986;17.490;2022-12-29T07:36:59;99427.50;;;6.73;78.70
77027;BME280;65956;52.986;17.490;2022-12-29T07:39:26;99430.53;;;6.74;78.67
77027;BME280;65956;52.986;17.490;2022-12-29T07:41:54;99430.87;;;6.75;78.73
77027;BME280;65956;52.986;17.490;2022-12-29T07:44:24;99427.86;;;6.80;79.16
77027;BME280;65956;52.986;17.490;2022-12-29T07:46:54;99422.80;;;6.80;78.98
77027;BME280;65956;52.986;17.490;2022-12-29T07:49:21;99418.73;;;6.82;78.94
77027;BME280;65956;52.986;17.490;2022-12-29T07:51:49;99418.73;;;6.84;79.02
77027;BME280;65956;52.986;17.490;2022-12-29T07:54:16;99424.47;;;6.85;78.90
77027;BME280;65956;52.986;17.490;2022-12-29T07:56:45;99433.05;;;6.87;78.81
77027;BME280;65956;52.986;17.490;2022-12-29T07:59:13;99428.22;;;6.87;78.86
77027;BME280;65956;52.986;17.490;2022-12-29T08:01:40;99424.04;;;6.88;78.89
77027;BME280;65956;52.986;17.490;2022-12-29T08:04:07;99422.77;;;6.92;78.89
77027;BME280;65956;52.986;17.490;2022-12-29T08:06:35;99420.02;;;6.97;78.72
77027;BME280;65956;52.986;17.490;2022-12-29T08:09:02;99420.83;;;6.98;78.37
77027;BME280;65956;52.986;17.490;2022-12-29T08:11:29;99421.65;;;7.00;78.50
77027;BME280;65956;52.986;17.490;2022-12-29T08:13:56;99420.63;;;7.01;78.55
77027;BME280;65956;52.986;17.490;2022-12-29T08:16:23;99416.33;;;7.04;78.36
77027;BME280;65956;52.986;17.490;2022-12-29T08:18:51;99425.73;;;7.08;78.44
77027;BME280;65956;52.986;17.490;2022-12-29T08:21:18;99421.88;;;7.10;78.37
77027;BME280;65956;52.986;17.490;2022-12-29T08:23:45;99430.02;;;7.13;78.25
77027;BME280;65956;52.986;17.490;2022-12-29T08:26:12;99435.84;;;7.16;78.26
77027;BME280;65956;52.986;17.490;2022-12-29T08:28:39;99442.45;;;7.19;78.28
77027;BME280;65956;52.986;17.490;2022-12-29T08:31:07;99438.93;;;7.21;78.04
77027;BME280;65956;52.986;17.490;2022-12-29T08:33:34;99435.50;;;7.24;78.20
77027;BME280;65956;52.986;17.490;2022-12-29T08:36:03;99443.46;;;7.26;78.11
77027;BME280;65956;52.986;17.490;2022-12-29T08:38:32;99441.95;;;7.32;77.99
77027;BME280;65956;52.986;17.490;2022-12-29T08:40:59;99440.18;;;7.35;77.83
77027;BME280;65956;52.986;17.490;2022-12-29T08:43:29;99443.14;;;7.37;77.98
77027;BME280;65956;52.986;17.490;2022-12-29T08:45:59;99444.99;;;7.39;78.10
77027;BME280;65956;52.986;17.490;2022-12-29T08:48:26;99438.55;;;7.42;78.13
77027;BME280;65956;52.986;17.490;2022-12-29T08:50:54;99445.55;;;7.44;78.06
77027;BME280;65956;52.986;17.490;2022-12-29T08:53:21;99440.80;;;7.45;78.25
77027;BME280;65956;52.986;17.490;2022-12-29T08:55:55;99438.66;;;7.44;78.60
77027;BME280;65956;52.986;17.490;2022-12-29T08:58:24;99436.91;;;7.43;78.52
77027;BME280;65956;52.986;17.490;2022-12-29T09:00:55;99430.35;;;7.45;78.53
77027;BME280;65956;52.986;17.490;2022-12-29T09:03:23;99434.16;;;7.45;78.40
77027;BME280;65956;52.986;17.490;2022-12-29T09:05:52;99433.42;;;7.44;78.56
77027;BME280;65956;52.986;17.490;2022-12-29T09:08:21;99437.00;;;7.45;78.43
77027;BME280;65956;52.986;17.490;2022-12-29T09:10:49;99436.12;;;7.49;78.39
77027;BME280;65956;52.986;17.490;2022-12-29T09:13:17;99435.85;;;7.52;77.91
77027;BME280;65956;52.986;17.490;2022-12-29T09:15:44;99433.67;;;7.55;77.68
77027;BME280;65956;52.986;17.490;2022-12-29T09:18:11;99434.61;;;7.55;77.59
77027;BME280;65956;52.986;17.490;2022-12-29T09:20:39;99430.32;;;7.53;77.55
77027;BME280;65956;52.986;17.490;2022-12-29T09:23:06;99437.60;;;7.53;77.30
77027;BME280;65956;52.986;17.490;2022-12-29T09:25:33;99434.16;;;7.51;77.36
77027;BME280;65956;52.986;17.490;2022-12-29T09:28:00;99431.94;;;7.50;77.20
77027;BME280;65956;52.986;17.490;2022-12-29T09:30:32;99424.09;;;7.50;77.42
77027;BME280;65956;52.986;17.490;2022-12-29T09:32:59;99425.30;;;7.51;77.22
77027;BME280;65956;52.986;17.490;2022-12-29T09:35:27;99419.41;;;7.55;77.24
77027;BME280;65956;52.986;17.490;2022-12-29T09:37:54;99418.58;;;7.57;77.06
77027;BME280;65956;52.986;17.490;2022-12-29T09:40:35;99421.04;;;7.57;77.06
77027;BME280;65956;52.986;17.490;2022-12-29T09:46:02;99426.20;;;7.52;77.23
77027;BME280;65956;52.986;17.490;2022-12-29T09:48:40;99426.59;;;7.53;77.30
77027;BME280;65956;52.986;17.490;2022-12-29T09:51:15;99424.60;;;7.52;77.59
77027;BME280;65956;52.986;17.490;2022-12-29T09:53:45;99422.95;;;7.53;77.80
77027;BME280;65956;52.986;17.490;2022-12-29T09:56:19;99418.98;;;7.53;77.74
77027;BME280;65956;52.986;17.490;2022-12-29T10:01:44;99414.41;;;7.59;77.83
77027;BME280;65956;52.986;17.490;2022-12-29T10:04:13;99408.88;;;7.61;78.02
77027;BME280;65956;52.986;17.490;2022-12-29T10:06:54;99404.77;;;7.62;78.12
77027;BME280;65956;52.986;17.490;2022-12-29T10:09:53;99408.48;;;7.65;78.18
77027;BME280;65956;52.986;17.490;2022-12-29T10:15:40;99405.59;;;7.69;77.75
77027;BME280;65956;52.986;17.490;2022-12-29T10:21:22;99402.65;;;7.74;78.11
77027;BME280;65956;52.986;17.490;2022-12-29T10:23:53;99403.52;;;7.80;78.01
77027;BME280;65956;52.986;17.490;2022-12-29T10:26:23;99399.38;;;7.89;78.09
77027;BME280;65956;52.986;17.490;2022-12-29T10:46:34;99394.27;;;8.45;76.34
77027;BME280;65956;52.986;17.490;2022-12-29T10:53:18;99385.93;;;8.53;76.05
77027;BME280;65956;52.986;17.490;2022-12-29T10:55:47;99384.11;;;8.53;75.87
77027;BME280;65956;52.986;17.490;2022-12-29T10:58:15;99382.41;;;8.56;75.66
77027;BME280;65956;52.986;17.490;2022-12-29T11:00:43;99378.89;;;8.62;75.65
77027;BME280;65956;52.986;17.490;2022-12-29T11:03:40;99373.08;;;8.67;75.43
77027;BME280;65956;52.986;17.490;2022-12-29T11:06:24;99370.16;;;8.88;75.40
77027;BME280;65956;52.986;17.490;2022-12-29T11:09:10;99356.04;;;9.09;74.77
77027;BME280;65956;52.986;17.490;2022-12-29T11:11:39;99349.42;;;9.16;73.53
77027;BME280;65956;52.986;17.490;2022-12-29T11:14:27;99356.88;;;9.26;73.20
77027;BME280;65956;52.986;17.490;2022-12-29T11:17:01;99353.27;;;9.44;72.64
77027;BME280;65956;52.986;17.490;2022-12-29T11:19:31;99336.60;;;9.63;72.17
77027;BME280;65956;52.986;17.490;2022-12-29T11:22:25;99339.94;;;9.80;71.31
77027;BME280;65956;52.986;17.490;2022-12-29T11:24:54;99342.89;;;10.06;70.57
77027;BME280;65956;52.986;17.490;2022-12-29T11:27:31;99340.75;;;10.23;70.23
77027;BME280;65956;52.986;17.490;2022-12-29T11:29:59;99340.08;;;10.37;69.53
77027;BME280;65956;52.986;17.490;2022-12-29T11:32:28;99330.80;;;11.37;67.16
77027;BME280;65956;52.986;17.490;2022-12-29T11:34:59;99326.94;;;13.12;61.21
77027;BME280;65956;52.986;17.490;2022-12-29T11:37:32;99331.94;;;13.34;59.88
77027;BME280;65956;52.986;17.490;2022-12-29T11:40:18;99331.73;;;13.23;59.45
77027;BME280;65956;52.986;17.490;2022-12-29T11:42:57;99332.11;;;13.31;59.48
77027;BME280;65956;52.986;17.490;2022-12-29T11:45:33;99319.90;;;14.53;56.11
77027;BME280;65956;52.986;17.490;2022-12-29T11:48:07;99318.65;;;15.65;53.93
77027;BME280;65956;52.986;17.490;2022-12-29T11:50:40;99321.04;;;16.40;51.16
77027;BME280;65956;52.986;17.490;2022-12-29T11:53:23;99324.55;;;17.06;49.47
77027;BME280;65956;52.986;17.490;2022-12-29T11:55:57;99315.96;;;17.52;48.33
77027;BME280;65956;52.986;17.490;2022-12-29T11:58:37;99317.61;;;15.88;51.03
77027;BME280;65956;52.986;17.490;2022-12-29T12:03:35;99322.44;;;14.21;55.58
77027;BME280;65956;52.986;17.490;2022-12-29T12:06:07;99323.23;;;15.61;52.47
77027;BME280;65956;52.986;17.490;2022-12-29T12:08:41;99325.90;;;16.42;50.32
77027;BME280;65956;52.986;17.490;2022-12-29T12:14:25;99327.40;;;17.72;48.01
77027;BME280;65956;52.986;17.490;2022-12-29T12:16:44;99328.08;;;18.14;47.00
77027;BME280;65956;52.986;17.490;2022-12-29T12:19:33;99326.21;;;18.33;46.56
77027;BME280;65956;52.986;17.490;2022-12-29T12:25:34;99320.27;;;17.06;47.16
77027;BME280;65956;52.986;17.490;2022-12-29T12:28:42;99316.00;;;16.56;48.19
77027;BME280;65956;52.986;17.490;2022-12-29T12:34:06;99308.66;;;15.33;51.07
77027;BME280;65956;52.986;17.490;2022-12-29T12:39:29;99310.44;;;15.84;50.21
77027;BME280;65956;52.986;17.490;2022-12-29T13:05:04;99306.10;;;13.72;55.42
77027;BME280;65956;52.986;17.490;2022-12-29T13:10:54;99308.57;;;13.01;57.89
77027;BME280;65956;52.986;17.490;2022-12-29T13:19:36;99326.10;;;12.56;59.61
77027;BME280;65956;52.986;17.490;2022-12-29T13:22:19;99328.77;;;12.75;59.41
77027;BME280;65956;52.986;17.490;2022-12-29T13:25:25;99330.57;;;12.79;59.12
77027;BME280;65956;52.986;17.490;2022-12-29T13:29:13;99324.19;;;12.67;59.61
77027;BME280;65956;52.986;17.490;2022-12-29T13:34:18;99326.63;;;13.03;58.82
77027;BME280;65956;52.986;17.490;2022-12-29T13:36:59;99323.86;;;13.35;58.10
77027;BME280;65956;52.986;17.490;2022-12-29T13:39:34;99327.20;;;13.01;58.24
77027;BME280;65956;52.986;17.490;2022-12-29T13:42:04;99331.12;;;12.70;59.07
77027;BME280;65956;52.986;17.490;2022-12-29T13:44:43;99327.02;;;12.38;60.15
77027;BME280;65956;52.986;17.490;2022-12-29T13:47:15;99325.48;;;12.13;60.87
77027;BME280;65956;52.986;17.490;2022-12-29T13:49:47;99329.30;;;11.84;61.68
77027;BME280;65956;52.986;17.490;2022-12-29T13:52:29;99336.35;;;11.60;62.35
77027;BME280;65956;52.986;17.490;2022-12-29T13:58:03;99331.45;;;10.88;64.82
77027;BME280;65956;52.986;17.490;2022-12-29T14:01:17;99337.57;;;10.66;65.55
77027;BME280;65956;52.986;17.490;2022-12-29T14:03:59;99338.41;;;10.42;66.31
77027;BME280;65956;52.986;17.490;2022-12-29T14:06:31;99340.75;;;10.23;67.04
77027;BME280;65956;52.986;17.490;2022-12-29T14:09:04;99340.05;;;10.11;67.53
77027;BME280;65956;52.986;17.490;2022-12-29T14:11:37;99336.13;;;9.99;68.06
77027;BME280;65956;52.986;17.490;2022-12-29T14:14:18;99334.66;;;9.93;68.38
77027;BME280;65956;52.986;17.490;2022-12-29T14:16:47;99335.59;;;9.87;68.78
77027;BME280;65956;52.986;17.490;2022-12-29T14:21:54;99334.27;;;9.75;69.37
77027;BME280;65956;52.986;17.490;2022-12-29T14:26:58;99336.77;;;9.65;70.12
77027;BME280;65956;52.986;17.490;2022-12-29T14:31:55;99332.61;;;9.60;70.35
77027;BME280;65956;52.986;17.490;2022-12-29T14:34:30;99327.52;;;9.58;70.43
77027;BME280;65956;52.986;17.490;2022-12-29T14:37:25;99336.98;;;9.56;70.64
77027;BME280;65956;52.986;17.490;2022-12-29T14:42:33;99339.64;;;9.53;70.86
77027;BME280;65956;52.986;17.490;2022-12-29T14:47:42;99330.00;;;9.47;71.09
77027;BME280;65956;52.986;17.490;2022-12-29T14:57:47;99327.45;;;9.45;70.98
77027;BME280;65956;52.986;17.490;2022-12-29T15:00:24;99327.98;;;9.42;71.15
77027;BME280;65956;52.986;17.490;2022-12-29T15:08:35;99322.41;;;9.39;70.97
77027;BME280;65956;52.986;17.490;2022-12-29T15:11:14;99322.07;;;9.37;71.04
77027;BME280;65956;52.986;17.490;2022-12-29T15:13:43;99314.84;;;9.35;70.86
77027;BME280;65956;52.986;17.490;2022-12-29T15:18:55;99315.84;;;9.31;70.87
77027;BME280;65956;52.986;17.490;2022-12-29T15:21:26;99309.55;;;9.29;70.76
77027;BME280;65956;52.986;17.490;2022-12-29T15:23:53;99312.17;;;9.28;70.72
77027;BME280;65956;52.986;17.490;2022-12-29T15:26:22;99324.41;;;9.29;70.77
77027;BME280;65956;52.986;17.490;2022-12-29T15:28:51;99329.16;;;9.27;70.83
77027;BME280;65956;52.986;17.490;2022-12-29T15:31:22;99331.23;;;9.27;70.66
77027;BME280;65956;52.986;17.490;2022-12-29T15:33:53;99327.81;;;9.28;70.46
77027;BME280;65956;52.986;17.490;2022-12-29T15:36:27;99327.42;;;9.28;70.42
77027;BME280;65956;52.986;17.490;2022-12-29T15:38:54;99333.70;;;9.26;70.47
77027;BME280;65956;52.986;17.490;2022-12-29T15:41:39;99330.41;;;9.24;70.44
77027;BME280;65956;52.986;17.490;2022-12-29T15:44:45;99328.65;;;9.21;70.53
77027;BME280;65956;52.986;17.490;2022-12-29T15:47:19;99324.02;;;9.18;70.62
77027;BME280;65956;52.986;17.490;2022-12-29T15:49:49;99319.14;;;9.13;70.75
77027;BME280;65956;52.986;17.490;2022-12-29T15:52:20;99317.34;;;9.14;70.69
77027;BME280;65956;52.986;17.490;2022-12-29T15:54:50;99323.25;;;9.20;70.70
77027;BME280;65956;52.986;17.490;2022-12-29T15:57:30;99311.81;;;9.21;70.71
77027;BME280;65956;52.986;17.490;2022-12-29T15:59:59;99316.75;;;9.23;70.81
77027;BME280;65956;52.986;17.490;2022-12-29T16:02:27;99319.45;;;9.24;70.78
77027;BME280;65956;52.986;17.490;2022-12-29T16:04:55;99324.73;;;9.29;70.73